Time;durP1;ratioP1;P1;durP2;ratioP2;P2;SDS_P1;SDS_P2;PMS_P1;PMS_P2;Temp;Humidity;BMP_temperature;BMP_pressure;BME280_temperature;BME280_humidity;BME280_pressure;Samples;Min_cycle;Max_cycle;Signal;HPM_P1;HPM_P2
2021/03/18 00:01:37;;;;;;;46.78;11.63;;;7.20;61.40;;;;;;5092562;28;20028;-72
2021/03/18 00:04:05;;;;;;;40.80;10.80;;;7.20;61.50;;;;;;5092881;28;20032;-72
2021/03/18 00:06:32;;;;;;;40.50;12.10;;;7.20;61.50;;;;;;5092254;28;20527;-71
2021/03/18 00:08:59;;;;;;;34.22;11.10;;;7.20;61.50;;;;;;5092607;28;20040;-72
2021/03/18 00:11:26;;;;;;;41.80;10.98;;;7.20;61.50;;;;;;5092232;28;20035;-71
2021/03/18 00:13:52;;;;;;;50.45;11.90;;;7.20;61.60;;;;;;5069946;28;20037;-71
2021/03/18 00:16:18;;;;;;;49.53;12.18;;;7.20;61.60;;;;;;5070832;28;20033;-72
2021/03/18 00:18:50;;;;;;;54.00;11.73;;;7.20;61.60;;;;;;5071631;28;20049;-71
2021/03/18 00:21:17;;;;;;;35.78;11.10;;;7.20;61.50;;;;;;5072313;28;20118;-71
2021/03/18 00:23:43;;;;;;;41.35;10.68;;;7.20;61.50;;;;;;5072231;28;20037;-72
2021/03/18 00:26:09;;;;;;;45.10;11.02;;;7.20;61.60;;;;;;5072242;28;20464;-72
2021/03/18 00:28:36;;;;;;;38.35;11.23;;;7.20;61.60;;;;;;5072019;28;20086;-72
2021/03/18 00:31:05;;;;;;;45.60;11.35;;;7.20;61.50;;;;;;5071901;28;20502;-72
2021/03/18 00:33:31;;;;;;;39.08;10.40;;;7.20;61.50;;;;;;5071823;28;20032;-71
2021/03/18 00:35:58;;;;;;;31.23;10.30;;;7.20;61.50;;;;;;5072151;28;20456;-71
2021/03/18 00:38:26;;;;;;;37.67;11.48;;;7.20;61.50;;;;;;5071898;28;20044;-72
2021/03/18 00:41:05;;;;;;;30.27;9.38;;;7.20;61.50;;;;;;5074736;28;20044;-71
2021/03/18 00:43:31;;;;;;;38.35;12.02;;;7.20;61.50;;;;;;5075739;28;20068;-71
2021/03/18 00:45:57;;;;;;;36.38;10.38;;;7.20;61.60;;;;;;5074249;28;20068;-72
2021/03/18 00:48:26;;;;;;;38.45;10.40;;;7.20;61.60;;;;;;5074254;28;20099;-72
2021/03/18 00:50:56;;;;;;;36.28;10.63;;;7.20;61.60;;;;;;5074468;28;20131;-72
2021/03/18 00:53:34;;;;;;;30.90;10.27;;;7.20;61.60;;;;;;5074053;28;20043;-72
2021/03/18 00:56:01;;;;;;;37.40;10.02;;;7.20;61.60;;;;;;5075642;28;20189;-71
2021/03/18 00:58:28;;;;;;;37.13;10.43;;;7.20;61.60;;;;;;5075345;28;20040;-70
2021/03/18 01:01:00;;;;;;;40.55;9.75;;;7.20;61.60;;;;;;5073873;28;20032;-70
2021/03/18 01:03:31;;;;;;;35.90;10.38;;;7.20;61.60;;;;;;5074473;28;20506;-70
2021/03/18 01:06:22;;;;;;;42.45;10.15;;;7.10;61.60;;;;;;5075478;28;20422;-70
2021/03/18 01:08:51;;;;;;;50.90;10.60;;;7.10;61.70;;;;;;5074137;28;20044;-70
2021/03/18 01:11:25;;;;;;;42.17;12.77;;;7.10;61.70;;;;;;5075257;28;20516;-70
2021/03/18 01:14:01;;;;;;;47.50;11.50;;;7.20;61.60;;;;;;5075205;28;20398;-70
2021/03/18 01:16:35;;;;;;;53.40;12.32;;;7.20;61.40;;;;;;5075161;28;20044;-70
2021/03/18 01:19:04;;;;;;;39.38;11.43;;;7.20;61.40;;;;;;5074861;28;20048;-70
2021/03/18 01:21:37;;;;;;;34.30;11.00;;;7.20;61.50;;;;;;5075154;28;20038;-70
2021/03/18 01:24:05;;;;;;;41.75;10.85;;;7.20;61.50;;;;;;5074688;28;20037;-70
2021/03/18 01:26:31;;;;;;;51.83;12.05;;;7.20;61.50;;;;;;5074785;28;20040;-70
2021/03/18 01:28:57;;;;;;;46.42;11.50;;;7.20;61.50;;;;;;5075027;28;20039;-69
2021/03/18 01:31:23;;;;;;;41.28;10.68;;;7.20;61.60;;;;;;5074903;28;20040;-70
2021/03/18 01:33:49;;;;;;;50.67;12.05;;;7.20;61.60;;;;;;5075058;28;20553;-71
2021/03/18 01:36:15;;;;;;;44.00;11.50;;;7.20;61.70;;;;;;5074437;28;20070;-70
2021/03/18 01:38:42;;;;;;;32.15;9.98;;;7.20;61.70;;;;;;5074657;28;20084;-70
2021/03/18 01:41:08;;;;;;;41.95;11.85;;;7.20;61.70;;;;;;5074432;28;20074;-71
2021/03/18 01:43:35;;;;;;;37.72;11.27;;;7.20;61.80;;;;;;5074266;28;20089;-71
2021/03/18 01:46:01;;;;;;;41.88;11.93;;;7.20;61.70;;;;;;5074617;28;20402;-71
2021/03/18 01:48:27;;;;;;;43.28;11.23;;;7.20;61.70;;;;;;5074256;28;20090;-71
2021/03/18 01:50:55;;;;;;;44.67;12.18;;;7.20;61.70;;;;;;5073562;28;20032;-71
2021/03/18 01:53:22;;;;;;;50.53;12.93;;;7.20;61.70;;;;;;5073028;28;20044;-71
2021/03/18 01:55:50;;;;;;;44.45;13.00;;;7.20;61.70;;;;;;5074361;28;20039;-70
2021/03/18 01:58:16;;;;;;;47.15;11.30;;;7.20;61.70;;;;;;5074298;28;20067;-70
2021/03/18 02:00:45;;;;;;;43.70;10.55;;;7.20;61.70;;;;;;5072902;28;20086;-70
2021/03/18 02:03:11;;;;;;;49.55;12.70;;;7.20;61.80;;;;;;5074333;28;20038;-70
2021/03/18 02:05:37;;;;;;;37.60;12.27;;;7.10;61.80;;;;;;5073805;28;20119;-70
2021/03/18 02:08:04;;;;;;;51.53;13.70;;;7.20;61.80;;;;;;5090793;28;20065;-70
2021/03/18 02:10:33;;;;;;;53.53;11.65;;;7.10;61.80;;;;;;5076054;28;20038;-71
2021/03/18 02:13:00;;;;;;;47.70;12.40;;;7.10;61.80;;;;;;5094297;28;20032;-71
2021/03/18 02:15:36;;;;;;;52.65;13.05;;;7.10;61.90;;;;;;5093908;28;20068;-70
2021/03/18 02:18:42;;;;;;;59.58;15.40;;;7.10;61.90;;;;;;5094168;28;20048;-70
2021/03/18 02:21:45;;;;;;;51.67;12.20;;;7.10;61.80;;;;;;5094384;28;20032;-70
2021/03/18 02:24:24;;;;;;;40.65;11.32;;;7.10;61.80;;;;;;5093783;28;20039;-70
2021/03/18 02:27:28;;;;;;;39.78;10.90;;;7.10;61.80;;;;;;5094015;28;20079;-71
2021/03/18 02:30:13;;;;;;;38.22;11.30;;;7.10;61.90;;;;;;5094160;28;20036;-71
2021/03/18 02:33:19;;;;;;;46.40;13.15;;;7.10;62.00;;;;;;5093760;28;20028;-70
2021/03/18 02:35:50;;;;;;;46.90;12.00;;;7.10;61.90;;;;;;5093736;28;20409;-70
2021/03/18 02:38:22;;;;;;;40.83;12.68;;;7.10;62.00;;;;;;5093753;28;20047;-70
2021/03/18 02:41:00;;;;;;;49.58;12.75;;;7.10;62.00;;;;;;5093554;28;20032;-71
2021/03/18 02:43:28;;;;;;;35.25;10.40;;;7.10;62.00;;;;;;5093445;28;20035;-71
2021/03/18 02:46:00;;;;;;;39.85;12.30;;;7.10;62.00;;;;;;5093940;28;20042;-70
2021/03/18 02:48:36;;;;;;;39.10;11.63;;;7.10;62.20;;;;;;5093793;28;20036;-70
2021/03/18 02:51:04;;;;;;;38.83;11.45;;;7.10;62.10;;;;;;5093938;28;20046;-70
2021/03/18 02:53:33;;;;;;;48.67;12.25;;;7.10;62.20;;;;;;5093355;28;20044;-70
2021/03/18 02:56:03;;;;;;;42.97;11.73;;;7.10;62.20;;;;;;5093181;28;20044;-71
2021/03/18 02:58:33;;;;;;;42.05;12.48;;;7.10;62.20;;;;;;5093830;28;20039;-72
2021/03/18 03:01:02;;;;;;;43.45;12.68;;;7.10;62.30;;;;;;5093281;28;20085;-71
2021/03/18 03:03:29;;;;;;;44.05;11.70;;;7.10;62.30;;;;;;5093015;28;20032;-70
2021/03/18 03:05:56;;;;;;;48.33;12.05;;;7.10;62.30;;;;;;5093317;28;20032;-70
2021/03/18 03:08:24;;;;;;;48.63;11.55;;;7.10;62.30;;;;;;5093347;28;20114;-70
2021/03/18 03:10:55;;;;;;;42.30;12.30;;;7.10;62.30;;;;;;5075178;28;20042;-70
2021/03/18 03:13:21;;;;;;;43.85;12.20;;;7.10;62.30;;;;;;5093350;28;20028;-69
2021/03/18 03:15:49;;;;;;;43.30;12.95;;;7.10;62.30;;;;;;5093018;28;20040;-69
2021/03/18 03:18:17;;;;;;;50.42;11.55;;;7.00;62.90;;;;;;5093171;28;20048;-70
2021/03/18 03:20:43;;;;;;;50.13;12.65;;;7.00;62.40;;;;;;5093048;28;20067;-69
2021/03/18 03:23:10;;;;;;;44.95;12.35;;;7.00;62.30;;;;;;5092739;28;20036;-70
2021/03/18 03:25:38;;;;;;;46.17;11.80;;;7.00;62.30;;;;;;5074969;28;20035;-70
2021/03/18 03:28:10;;;;;;;54.78;13.07;;;7.00;62.30;;;;;;5093030;28;20154;-70
2021/03/18 03:30:38;;;;;;;38.88;11.23;;;7.00;62.30;;;;;;5092697;28;20028;-70
2021/03/18 03:33:06;;;;;;;41.58;13.60;;;7.00;62.30;;;;;;5093082;28;20035;-70
2021/03/18 03:35:33;;;;;;;39.30;12.73;;;7.10;62.30;;;;;;5092852;28;20043;-70
2021/03/18 03:37:59;;;;;;;39.95;12.38;;;7.00;62.20;;;;;;5093021;28;20036;-70
2021/03/18 03:40:25;;;;;;;43.70;12.45;;;7.00;62.30;;;;;;5092613;28;20058;-71
2021/03/18 03:42:52;;;;;;;44.20;12.10;;;7.00;62.30;;;;;;5092991;28;20405;-71
2021/03/18 03:45:18;;;;;;;35.95;12.43;;;7.00;62.30;;;;;;5092842;28;20105;-70
2021/03/18 03:47:45;;;;;;;45.83;11.93;;;7.00;62.30;;;;;;5092763;28;20401;-70
2021/03/18 03:50:23;;;;;;;40.60;12.15;;;7.00;62.30;;;;;;5092465;28;20097;-70
2021/03/18 03:53:12;;;;;;;40.05;12.48;;;7.00;62.30;;;;;;5092910;28;20044;-72
2021/03/18 03:55:55;;;;;;;60.83;13.98;;;7.00;62.30;;;;;;5092773;28;20040;-73
2021/03/18 03:58:37;;;;;;;44.42;13.45;;;7.00;62.30;;;;;;5093011;28;20040;-72
2021/03/18 04:01:09;;;;;;;33.97;10.30;;;7.00;62.40;;;;;;5092514;28;20036;-72
2021/03/18 04:03:36;;;;;;;48.05;13.57;;;7.00;62.40;;;;;;5092632;28;20410;-72
2021/03/18 04:06:03;;;;;;;42.28;12.75;;;7.00;62.40;;;;;;5092548;28;20037;-71
2021/03/18 04:08:31;;;;;;;41.60;13.07;;;7.00;62.30;;;;;;5092624;28;20048;-71
2021/03/18 04:10:59;;;;;;;39.70;12.43;;;7.00;62.30;;;;;;5092534;28;20036;-71
2021/03/18 04:13:30;;;;;;;48.15;13.07;;;7.00;62.40;;;;;;5057610;28;20032;-71
2021/03/18 04:16:00;;;;;;;42.13;11.88;;;7.00;62.40;;;;;;5077371;28;20036;-71
2021/03/18 04:18:33;;;;;;;39.78;12.43;;;7.00;62.50;;;;;;5096469;28;20047;-70
2021/03/18 04:21:00;;;;;;;39.13;12.63;;;7.00;62.50;;;;;;5078205;28;20043;-71
2021/03/18 04:23:30;;;;;;;43.90;11.98;;;7.00;62.40;;;;;;5078053;28;20122;-70
2021/03/18 04:25:57;;;;;;;41.25;12.30;;;7.00;62.50;;;;;;5096632;28;20032;-71
2021/03/18 04:28:29;;;;;;;36.03;12.80;;;7.00;62.50;;;;;;5096123;28;20126;-71
2021/03/18 04:30:56;;;;;;;45.00;12.25;;;7.00;62.40;;;;;;5096210;28;20043;-71
2021/03/18 04:33:24;;;;;;;51.33;12.80;;;7.00;62.40;;;;;;5078334;28;20119;-70
2021/03/18 04:35:51;;;;;;;53.15;13.65;;;7.00;62.40;;;;;;5096057;28;20122;-72
2021/03/18 04:38:18;;;;;;;51.72;12.95;;;7.00;62.30;;;;;;5077853;28;20159;-72
2021/03/18 04:40:46;;;;;;;39.90;11.02;;;7.00;62.30;;;;;;5096006;28;20405;-73
2021/03/18 04:43:12;;;;;;;41.55;12.00;;;7.00;62.40;;;;;;5095753;28;20493;-70
2021/03/18 04:45:39;;;;;;;50.47;14.13;;;7.00;62.50;;;;;;5096261;28;20039;-71
2021/03/18 04:48:06;;;;;;;42.08;13.25;;;7.00;62.50;;;;;;5096229;28;20040;-70
2021/03/18 04:50:33;;;;;;;57.72;13.48;;;7.10;62.50;;;;;;5095610;28;20047;-70
2021/03/18 04:53:00;;;;;;;44.13;13.27;;;7.10;62.50;;;;;;5078101;28;20100;-70
2021/03/18 04:55:28;;;;;;;52.25;14.00;;;7.10;63.10;;;;;;5095741;28;20043;-69
2021/03/18 04:58:06;;;;;;;40.65;12.35;;;7.10;62.50;;;;;;5095392;28;20398;-72
2021/03/18 05:00:33;;;;;;;48.05;13.93;;;7.00;62.50;;;;;;5095676;28;20035;-70
2021/03/18 05:03:03;;;;;;;41.13;11.32;;;7.10;62.60;;;;;;5095480;28;20101;-70
2021/03/18 05:05:33;;;;;;;41.72;13.27;;;7.10;62.60;;;;;;5095161;28;20043;-70
2021/03/18 05:08:00;;;;;;;41.70;12.13;;;7.10;62.60;;;;;;5095873;28;20081;-72
2021/03/18 05:10:29;;;;;;;40.47;12.20;;;7.10;62.60;;;;;;5095252;28;20047;-69
2021/03/18 05:12:56;;;;;;;35.08;11.55;;;7.10;62.60;;;;;;5095300;28;20039;-73
2021/03/18 05:15:24;;;;;;;43.45;12.43;;;7.10;62.70;;;;;;5095166;28;20036;-73
2021/03/18 05:17:50;;;;;;;38.80;13.05;;;7.10;63.30;;;;;;5094866;28;20039;-73
2021/03/18 05:20:19;;;;;;;39.72;13.68;;;7.10;64.40;;;;;;5095131;28;20115;-65
2021/03/18 05:22:47;;;;;;;52.40;12.80;;;7.20;65.10;;;;;;5076925;28;20437;-66
2021/03/18 05:25:15;;;;;;;46.00;11.43;;;7.20;66.00;;;;;;5094999;28;20048;-66
2021/03/18 05:27:42;;;;;;;35.83;12.05;;;7.20;66.30;;;;;;5077267;28;20028;-65
2021/03/18 05:30:10;;;;;;;44.50;11.90;;;7.20;66.90;;;;;;5095032;28;20024;-67
2021/03/18 05:32:37;;;;;;;41.88;11.90;;;7.30;67.50;;;;;;5094937;28;20093;-67
2021/03/18 05:35:05;;;;;;;45.85;11.32;;;7.30;68.00;;;;;;5094548;28;20484;-66
2021/03/18 05:37:31;;;;;;;35.92;9.82;;;7.30;68.40;;;;;;5095612;28;20047;-68
2021/03/18 05:39:57;;;;;;;31.98;9.60;;;7.40;68.70;;;;;;5094810;28;20040;-68
2021/03/18 05:42:23;;;;;;;34.17;11.48;;;7.40;68.30;;;;;;5094673;28;20051;-68
2021/03/18 05:44:49;;;;;;;31.23;11.05;;;7.50;68.70;;;;;;5095153;28;20032;-68
2021/03/18 05:47:16;;;;;;;29.10;10.13;;;7.50;69.50;;;;;;5076764;28;20176;-68
2021/03/18 05:49:45;;;;;;;27.45;10.57;;;7.60;69.10;;;;;;5094994;28;20039;-68
2021/03/18 05:52:12;;;;;;;37.45;10.60;;;7.60;69.00;;;;;;5095031;28;20028;-67
2021/03/18 05:54:46;;;;;;;35.45;11.85;;;7.70;69.10;;;;;;5094662;28;20062;-68
2021/03/18 05:57:14;;;;;;;28.77;11.07;;;7.70;69.20;;;;;;5094541;28;20038;-68
2021/03/18 05:59:43;;;;;;;36.40;11.40;;;7.70;69.20;;;;;;5094231;28;20348;-67
2021/03/18 06:02:09;;;;;;;38.28;10.50;;;7.80;69.30;;;;;;5076346;28;20494;-68
2021/03/18 06:04:36;;;;;;;40.40;10.32;;;7.80;69.30;;;;;;5094471;28;20093;-67
2021/03/18 06:07:02;;;;;;;34.80;10.30;;;7.80;69.40;;;;;;5094011;28;20567;-68
2021/03/18 06:09:28;;;;;;;37.22;9.65;;;7.90;69.40;;;;;;5094208;28;20391;-67
2021/03/18 06:11:54;;;;;;;30.95;9.52;;;7.90;69.30;;;;;;5094121;28;20397;-68
2021/03/18 06:14:20;;;;;;;39.10;11.43;;;7.90;69.30;;;;;;5093975;28;20111;-67
2021/03/18 06:16:48;;;;;;;35.42;10.23;;;8.00;69.30;;;;;;5094176;28;20039;-67
2021/03/18 06:19:15;;;;;;;25.92;10.10;;;8.00;69.20;;;;;;5093852;28;20375;-68
2021/03/18 06:21:51;;;;;;;27.15;9.63;;;8.00;69.20;;;;;;5093924;28;20121;-68
2021/03/18 06:24:21;;;;;;;45.92;12.05;;;8.00;69.10;;;;;;5093990;28;20425;-68
2021/03/18 06:26:48;;;;;;;37.38;11.02;;;8.00;69.10;;;;;;5093862;28;20055;-68
2021/03/18 06:29:28;;;;;;;32.85;10.50;;;8.10;69.20;;;;;;5093705;28;20032;-68
2021/03/18 06:31:56;;;;;;;31.52;10.38;;;8.10;69.20;;;;;;5094034;28;20032;-68
2021/03/18 06:34:56;;;;;;;28.75;10.15;;;8.10;69.20;;;;;;5094226;28;20031;-67
2021/03/18 06:37:33;;;;;;;30.05;9.82;;;8.10;69.20;;;;;;5093403;28;20073;-68
2021/03/18 06:40:02;;;;;;;25.92;9.05;;;8.10;69.20;;;;;;5094132;28;20044;-68
2021/03/18 06:42:29;;;;;;;31.48;10.40;;;8.20;69.30;;;;;;5075617;28;20044;-67
2021/03/18 06:45:12;;;;;;;25.25;9.27;;;8.20;69.30;;;;;;5093917;28;20109;-67
2021/03/18 06:47:44;;;;;;;30.48;9.80;;;8.20;69.20;;;;;;5093802;28;20119;-67
2021/03/18 06:50:12;;;;;;;25.45;9.13;;;8.30;69.30;;;;;;5093385;28;20044;-67
2021/03/18 06:52:39;;;;;;;31.55;9.57;;;8.30;69.30;;;;;;5093639;28;20040;-67
2021/03/18 06:55:09;;;;;;;33.92;10.15;;;8.30;69.20;;;;;;5093539;28;20063;-68
2021/03/18 06:57:35;;;;;;;28.65;8.95;;;8.30;69.20;;;;;;5075769;28;20067;-68
2021/03/18 07:00:04;;;;;;;33.70;10.18;;;8.40;69.20;;;;;;5093459;28;20052;-66
2021/03/18 07:02:30;;;;;;;27.98;9.27;;;8.40;69.20;;;;;;5093147;28;20505;-66
2021/03/18 07:04:56;;;;;;;28.17;9.93;;;8.40;69.10;;;;;;5093404;28;20034;-66
2021/03/18 07:07:28;;;;;;;31.33;10.60;;;8.40;69.00;;;;;;5093123;28;20058;-66
2021/03/18 07:09:55;;;;;;;30.75;9.40;;;8.40;68.90;;;;;;5093361;28;20046;-66
2021/03/18 07:12:32;;;;;;;26.23;9.43;;;8.50;68.90;;;;;;5093064;28;20031;-66
2021/03/18 07:15:00;;;;;;;34.20;11.23;;;8.50;68.90;;;;;;5092998;28;20405;-68
2021/03/18 07:17:37;;;;;;;31.88;11.32;;;8.50;68.80;;;;;;5075055;28;20047;-66
2021/03/18 07:20:20;;;;;;;35.53;11.25;;;8.50;68.80;;;;;;5074972;28;20096;-73
2021/03/18 07:22:51;;;;;;;29.63;11.30;;;8.50;68.80;;;;;;5075080;28;20046;-74
2021/03/18 07:25:22;;;;;;;19.08;9.75;;;8.60;68.80;;;;;;5092812;28;20044;-73
2021/03/18 07:27:50;;;;;;;36.70;9.90;;;8.60;68.70;;;;;;5092807;28;20462;-74
2021/03/18 07:30:27;;;;;;;17.70;9.05;;;8.60;68.60;;;;;;5093165;28;20042;-76
2021/03/18 07:32:54;;;;;;;41.00;11.40;;;8.60;68.60;;;;;;5074919;28;20044;-77
2021/03/18 07:35:21;;;;;;;32.83;10.05;;;8.60;68.60;;;;;;5092971;28;20028;-73
2021/03/18 07:37:48;;;;;;;34.78;10.82;;;8.60;68.80;;;;;;5092901;28;20056;-74
2021/03/18 07:40:15;;;;;;;32.00;10.82;;;8.60;68.90;;;;;;5074751;28;20546;-73
2021/03/18 07:42:42;;;;;;;26.52;9.70;;;8.60;68.90;;;;;;5075091;28;20039;-74
2021/03/18 07:45:10;;;;;;;28.48;10.52;;;8.70;69.00;;;;;;5092772;28;20043;-77
2021/03/18 07:47:37;;;;;;;28.85;10.90;;;8.70;69.00;;;;;;5092972;28;20028;-77
2021/03/18 07:50:09;;;;;;;31.27;10.90;;;8.70;69.60;;;;;;5094475;28;20548;-77
2021/03/18 07:52:40;;;;;;;26.63;9.52;;;8.70;69.00;;;;;;5096823;28;20040;-76
2021/03/18 07:55:08;;;;;;;28.73;10.05;;;8.70;69.00;;;;;;5096999;28;20051;-77
2021/03/18 07:57:50;;;;;;;22.85;9.52;;;8.70;69.00;;;;;;5078716;28;20032;-77
2021/03/18 08:00:26;;;;;;;23.23;9.30;;;8.70;69.00;;;;;;5097270;28;20046;-78
2021/03/18 08:03:14;;;;;;;;;;;8.80;69.10;;;;;;5097027;28;20619;-74
2021/03/18 08:05:40;;;;;;;26.50;9.93;;;8.80;69.20;;;;;;5096949;28;19918;-77
2021/03/18 08:08:32;;;;;;;26.83;9.70;;;8.80;69.10;;;;;;5097178;28;20080;-75
2021/03/18 08:11:10;;;;;;;22.75;9.82;;;8.80;69.10;;;;;;5096742;28;20036;-76
2021/03/18 08:13:38;;;;;;;26.55;10.60;;;8.80;69.00;;;;;;5096584;28;20044;-76
2021/03/18 08:16:29;;;;;;;29.40;11.65;;;8.80;69.00;;;;;;5078498;28;20032;-78
2021/03/18 08:18:55;;;;;;;24.02;10.15;;;8.80;68.90;;;;;;5095806;28;20040;-78
2021/03/18 08:21:32;;;;;;;24.15;9.82;;;8.90;68.90;;;;;;5096241;28;20071;-75
2021/03/18 08:23:58;;;;;;;32.38;11.18;;;8.90;68.90;;;;;;5096246;28;20122;-78
2021/03/18 08:26:38;;;;;;;23.20;10.43;;;8.90;68.80;;;;;;5096887;28;20078;-76
2021/03/18 08:29:25;;;;;;;21.33;10.90;;;8.90;68.70;;;;;;5096510;28;20038;-76
2021/03/18 08:31:57;;;;;;;20.15;9.95;;;9.00;68.70;;;;;;5078206;28;20028;-72
2021/03/18 08:34:49;;;;;;;19.60;9.50;;;8.90;68.60;;;;;;5095862;28;20069;-72
2021/03/18 08:37:30;;;;;;;27.50;10.48;;;9.00;68.60;;;;;;5096618;28;20027;-75
2021/03/18 08:39:56;;;;;;;26.50;11.38;;;9.00;68.50;;;;;;5095942;28;20048;-75
2021/03/18 08:42:28;;;;;;;25.83;10.48;;;9.00;68.50;;;;;;5095964;28;20494;-80
2021/03/18 08:45:01;;;;;;;20.92;9.77;;;9.00;68.50;;;;;;5077774;28;20036;-76
2021/03/18 08:47:35;;;;;;;25.85;10.40;;;9.00;68.40;;;;;;5096358;28;20040;-75
2021/03/18 08:50:03;;;;;;;27.05;10.85;;;9.00;68.40;;;;;;5096005;28;20040;-74
2021/03/18 08:52:41;;;;;;;23.90;10.50;;;9.00;68.30;;;;;;5077801;28;20035;-75
2021/03/18 08:55:09;;;;;;;28.15;11.55;;;9.00;68.30;;;;;;5095696;28;20028;-75
2021/03/18 08:57:36;;;;;;;25.50;12.02;;;9.10;68.30;;;;;;5095751;28;20040;-75
2021/03/18 09:00:13;;;;;;;23.83;10.27;;;9.00;68.20;;;;;;5076981;28;20518;-75
2021/03/18 09:02:40;;;;;;;24.75;10.80;;;9.10;68.10;;;;;;5095778;28;20035;-74
2021/03/18 09:05:17;;;;;;;21.27;9.95;;;9.10;68.10;;;;;;5095485;28;20042;-75
2021/03/18 09:07:45;;;;;;;20.80;10.00;;;9.10;68.10;;;;;;5095438;28;20059;-74
2021/03/18 09:10:13;;;;;;;18.42;9.60;;;9.10;68.00;;;;;;5095085;28;20129;-74
2021/03/18 09:12:41;;;;;;;23.77;11.02;;;9.10;68.00;;;;;;5095505;28;20035;-74
2021/03/18 09:15:13;;;;;;;21.65;10.15;;;9.10;67.90;;;;;;5095338;28;20032;-74
2021/03/18 09:17:40;;;;;;;31.00;11.70;;;9.10;67.80;;;;;;5077393;28;20031;-74
2021/03/18 09:20:07;;;;;;;21.77;10.30;;;9.10;67.70;;;;;;5095345;28;20075;-74
2021/03/18 09:22:33;;;;;;;21.55;10.48;;;9.10;67.60;;;;;;5095053;28;20081;-73
2021/03/18 09:25:01;;;;;;;22.23;11.52;;;9.10;67.50;;;;;;5094917;28;20035;-73
2021/03/18 09:27:35;;;;;;;30.77;13.40;;;9.20;67.40;;;;;;5095685;28;20482;-73
2021/03/18 09:30:41;;;;;;;32.55;13.45;;;9.20;67.20;;;;;;5094922;28;20130;-77
2021/03/18 09:33:19;;;;;;;26.38;13.52;;;9.10;66.80;;;;;;4993350;28;20030;-73
2021/03/18 09:35:46;;;;;;;32.17;13.85;;;9.20;66.60;;;;;;5086942;28;20056;-74
2021/03/18 09:38:22;;;;;;;29.67;13.95;;;9.10;66.10;;;;;;5095011;28;20050;-73
2021/03/18 09:40:48;;;;;;;24.05;12.68;;;9.20;65.80;;;;;;5076877;28;20069;-73
2021/03/18 09:43:16;;;;;;;23.45;10.95;;;9.20;65.50;;;;;;5094912;28;20040;-73
2021/03/18 09:46:09;;;;;;;27.35;13.00;;;9.20;65.30;;;;;;5094395;28;20097;-73
2021/03/18 09:48:38;;;;;;;23.90;11.60;;;9.20;64.80;;;;;;5090715;28;20072;-73
2021/03/18 09:51:05;;;;;;;23.33;12.27;;;9.20;64.90;;;;;;5094315;28;20040;-73
2021/03/18 09:53:31;;;;;;;25.05;11.48;;;9.20;64.70;;;;;;5094507;28;20028;-73
2021/03/18 09:56:02;;;;;;;25.10;11.00;;;9.20;64.30;;;;;;5094353;28;20115;-73
2021/03/18 09:58:28;;;;;;;27.30;12.18;;;9.30;64.20;;;;;;5094710;28;20040;-73
2021/03/18 10:00:54;;;;;;;29.27;11.95;;;9.20;63.90;;;;;;5094845;28;20030;-72
2021/03/18 10:03:20;;;;;;;21.27;11.38;;;9.20;63.70;;;;;;5094189;28;20493;-73
2021/03/18 10:05:46;;;;;;;21.52;10.63;;;9.20;63.40;;;;;;5076099;28;20044;-73
2021/03/18 10:08:12;;;;;;;21.42;9.93;;;9.20;63.20;;;;;;5094399;28;20154;-74
2021/03/18 10:10:38;;;;;;;20.15;11.75;;;9.20;62.80;;;;;;5094036;28;20028;-76
2021/03/18 10:13:04;;;;;;;26.98;11.15;;;9.20;62.70;;;;;;5093528;28;20040;-73
2021/03/18 10:52:00;;;;;;;21.58;8.18;;;11.50;66.60;;;;;;5131130;27;20326;-73
2021/03/18 10:54:26;;;;;;;26.67;7.90;;;12.00;66.30;;;;;;5130799;28;20039;-72
2021/03/18 10:56:52;;;;;;;17.83;7.93;;;12.20;57.70;;;;;;5130553;28;20300;-73
2021/03/18 10:59:22;;;;;;;20.55;8.02;;;12.10;57.30;;;;;;5131021;28;20048;-72
2021/03/18 11:01:48;;;;;;;18.98;7.65;;;12.10;56.50;;;;;;5130917;28;20142;-71
2021/03/18 11:04:15;;;;;;;25.60;7.88;;;12.00;54.20;;;;;;5130718;28;20499;-73
2021/03/18 11:06:50;;;;;;;25.90;8.25;;;11.90;56.00;;;;;;5130704;28;20039;-72
2021/03/18 11:09:18;;;;;;;22.70;7.20;;;11.70;59.80;;;;;;5111906;28;20084;-72
2021/03/18 11:11:58;;;;;;;17.83;7.80;;;11.70;59.70;;;;;;5130175;28;20036;-72
2021/03/18 11:14:26;;;;;;;25.48;7.93;;;11.50;56.20;;;;;;5130513;28;20076;-72
2021/03/18 11:17:03;;;;;;;26.95;8.30;;;11.30;56.00;;;;;;5130380;28;20034;-73
2021/03/18 11:19:29;;;;;;;25.08;8.77;;;11.00;55.20;;;;;;5130559;28;20467;-72
2021/03/18 11:22:04;;;;;;;28.70;9.00;;;10.80;55.00;;;;;;5130581;28;20114;-72
2021/03/18 11:24:31;;;;;;;25.55;8.93;;;10.60;55.10;;;;;;5131054;28;20027;-72
2021/03/18 11:27:03;;;;;;;20.77;8.38;;;10.50;54.40;;;;;;5130365;28;20038;-71
2021/03/18 11:29:32;;;;;;;29.58;8.40;;;10.40;54.90;;;;;;5130090;28;20042;-72
2021/03/18 11:32:01;;;;;;;23.77;8.60;;;10.20;55.30;;;;;;5130253;28;20043;-72
2021/03/18 11:34:33;;;;;;;25.77;8.95;;;10.10;55.60;;;;;;5111842;28;20027;-71
2021/03/18 11:37:04;;;;;;;26.48;8.32;;;10.00;55.80;;;;;;5130019;28;20087;-73
2021/03/18 11:39:31;;;;;;;26.60;8.77;;;9.90;55.10;;;;;;5130362;28;20028;-74
2021/03/18 11:41:58;;;;;;;28.30;8.88;;;9.80;56.10;;;;;;5111491;28;20523;-80
2021/03/18 11:44:26;;;;;;;23.70;8.95;;;9.80;55.10;;;;;;5094616;28;20464;-83
2021/03/18 11:46:54;;;;;;;22.02;8.13;;;9.70;55.80;;;;;;5129892;28;20046;-71
2021/03/18 11:49:24;;;;;;;26.30;8.82;;;9.60;56.00;;;;;;5130337;28;20024;-71
2021/03/18 11:51:50;;;;;;;27.42;8.80;;;9.50;55.80;;;;;;5111447;28;20055;-72
2021/03/18 11:54:16;;;;;;;24.83;8.68;;;9.30;56.30;;;;;;5129995;28;20031;-72
2021/03/18 11:56:42;;;;;;;20.52;7.38;;;9.30;56.90;;;;;;5129441;28;20038;-71
2021/03/18 11:59:08;;;;;;;21.25;7.50;;;9.30;57.00;;;;;;5129674;28;20024;-72
2021/03/18 12:01:34;;;;;;;24.85;8.93;;;9.30;56.60;;;;;;5125947;28;20434;-73
2021/03/18 12:04:00;;;;;;;17.17;7.43;;;9.30;56.20;;;;;;5116622;28;20154;-72
2021/03/18 12:06:26;;;;;;;19.38;7.25;;;9.30;56.50;;;;;;5097756;28;20035;-72
2021/03/18 12:08:52;;;;;;;31.73;8.30;;;9.30;56.20;;;;;;5115983;28;20062;-75
2021/03/18 12:11:19;;;;;;;25.98;7.10;;;9.20;56.10;;;;;;5080858;28;20416;-75
2021/03/18 12:13:45;;;;;;;31.98;9.88;;;9.20;56.80;;;;;;5080677;28;20100;-75
2021/03/18 12:16:11;;;;;;;22.38;7.40;;;9.20;56.20;;;;;;5097134;28;20483;-76
2021/03/18 12:18:37;;;;;;;20.70;8.10;;;9.20;56.60;;;;;;5097369;28;20055;-75
2021/03/18 12:21:03;;;;;;;19.48;7.15;;;9.10;56.10;;;;;;5115498;28;20028;-72
2021/03/18 12:23:30;;;;;;;25.77;7.55;;;9.00;56.20;;;;;;5115302;28;20448;-72
2021/03/18 12:25:56;;;;;;;19.85;6.93;;;8.90;56.50;;;;;;5097444;28;20564;-72
2021/03/18 12:28:22;;;;;;;18.98;6.93;;;8.90;56.90;;;;;;5097245;28;20031;-72
2021/03/18 12:30:49;;;;;;;18.38;6.50;;;8.90;56.40;;;;;;5096820;28;20030;-71
2021/03/18 12:33:18;;;;;;;24.85;7.90;;;8.90;56.40;;;;;;5080194;28;20130;-71
2021/03/18 12:35:44;;;;;;;26.38;7.13;;;8.80;56.50;;;;;;5080262;28;20130;-71
2021/03/18 12:38:10;;;;;;;23.95;6.53;;;8.80;56.60;;;;;;5115039;28;20028;-70
2021/03/18 12:40:38;;;;;;;8.27;5.22;;;8.70;56.80;;;;;;5096967;28;20072;-72
2021/03/18 12:43:04;;;;;;;23.77;6.65;;;8.70;57.10;;;;;;5096882;28;20440;-71
2021/03/18 12:45:31;;;;;;;16.15;6.63;;;8.80;57.60;;;;;;5115021;28;20081;-72
2021/03/18 12:48:02;;;;;;;17.75;6.00;;;8.80;56.90;;;;;;5114635;28;20071;-72
2021/03/18 12:50:28;;;;;;;18.73;5.95;;;8.70;57.30;;;;;;5096305;28;20059;-73
2021/03/18 12:52:55;;;;;;;20.45;6.25;;;8.60;57.30;;;;;;5114924;28;20076;-72
2021/03/18 12:55:22;;;;;;;17.75;5.90;;;8.70;57.50;;;;;;5079737;28;20545;-73
2021/03/18 12:57:48;;;;;;;16.52;5.95;;;8.50;57.90;;;;;;5114769;28;20034;-73
2021/03/18 13:00:17;;;;;;;15.35;5.82;;;8.50;58.20;;;;;;5096577;28;20036;-74
2021/03/18 13:02:43;;;;;;;13.25;6.05;;;8.50;58.40;;;;;;5114390;28;20043;-71
2021/03/18 13:05:10;;;;;;;11.77;4.97;;;8.50;58.50;;;;;;5114696;28;20111;-71
2021/03/18 13:07:36;;;;;;;15.52;6.15;;;8.50;58.60;;;;;;5096146;28;20566;-70
2021/03/18 13:10:05;;;;;;;16.50;6.63;;;8.50;58.60;;;;;;5096192;28;20035;-73
2021/03/18 13:12:32;;;;;;;17.70;6.50;;;8.40;58.80;;;;;;5096379;28;20100;-72
2021/03/18 13:14:58;;;;;;;14.80;5.53;;;8.40;58.50;;;;;;5113452;28;20111;-71
2021/03/18 13:17:24;;;;;;;13.70;6.15;;;8.30;58.80;;;;;;5114348;28;20031;-71
2021/03/18 13:19:50;;;;;;;16.65;6.53;;;8.30;59.10;;;;;;5096696;28;20114;-71
2021/03/18 13:22:16;;;;;;;16.52;6.47;;;8.20;59.30;;;;;;5096111;28;20046;-72
2021/03/18 13:24:42;;;;;;;20.70;6.90;;;8.20;59.30;;;;;;5079295;28;20171;-73
2021/03/18 13:27:08;;;;;;;16.33;6.38;;;8.20;59.40;;;;;;5095762;28;20122;-75
2021/03/18 13:29:34;;;;;;;18.30;5.78;;;8.20;59.30;;;;;;5079152;28;20053;-75
2021/03/18 13:32:01;;;;;;;16.88;6.00;;;8.10;59.20;;;;;;5095967;28;20044;-73